createdAt,value
2023-03-04T00:00:50.494Z,2.83
2023-03-04T00:03:22.239Z,3.03
2023-03-04T00:05:53.831Z,2.77
2023-03-04T00:08:25.340Z,3.78
2023-03-04T00:10:56.830Z,2.53
2023-03-04T00:13:28.436Z,2.97
2023-03-04T00:16:00.023Z,3.53
2023-03-04T00:18:31.578Z,2.97
2023-03-04T00:21:03.155Z,2.58
2023-03-04T00:23:34.698Z,4.05
2023-03-04T00:26:06.299Z,2.78
2023-03-04T00:28:38.862Z,3.20
2023-03-04T00:31:10.410Z,4.60
2023-03-04T00:33:44.428Z,3.13
2023-03-04T00:36:16.131Z,1.85
2023-03-04T00:38:48.138Z,4.35
2023-03-04T00:41:19.674Z,2.92
2023-03-04T00:43:51.355Z,3.28
2023-03-04T00:46:22.884Z,2.55
2023-03-04T00:48:54.851Z,3.75
2023-03-04T00:51:26.345Z,2.73
2023-03-04T00:54:00.405Z,2.42
2023-03-04T00:56:32.405Z,2.83
2023-03-04T00:59:04.169Z,3.75
2023-03-04T01:01:35.740Z,3.67
2023-03-04T01:04:07.636Z,3.33
2023-03-04T01:06:39.152Z,2.17
2023-03-04T01:09:10.966Z,1.98
2023-03-04T01:11:42.458Z,3.17
2023-03-04T01:14:14.078Z,1.75
2023-03-04T01:16:45.612Z,2.75
2023-03-04T01:19:17.177Z,2.17
2023-03-04T01:21:48.710Z,3.25
2023-03-04T01:24:20.584Z,2.63
2023-03-04T01:26:52.097Z,3.17
2023-03-04T01:29:23.895Z,1.48
2023-03-04T01:31:55.418Z,2.25
2023-03-04T01:34:27.018Z,2.70
2023-03-04T01:36:58.582Z,2.80
2023-03-04T01:39:30.146Z,3.28
2023-03-04T01:42:01.707Z,2.45
2023-03-04T01:44:33.275Z,2.90
2023-03-04T01:47:04.772Z,2.67
2023-03-04T01:49:36.858Z,3.08
2023-03-04T01:52:08.374Z,3.03
2023-03-04T01:54:40.338Z,2.40
2023-03-04T01:57:11.862Z,2.27
2023-03-04T01:59:43.693Z,3.15
2023-03-04T02:02:15.228Z,3.03
2023-03-04T02:04:47.205Z,1.60
2023-03-04T02:07:18.739Z,1.73
2023-03-04T02:09:50.279Z,2.45
2023-03-04T02:12:21.794Z,1.63
2023-03-04T02:14:53.652Z,2.03
2023-03-04T02:17:25.178Z,1.77
2023-03-04T02:19:57.044Z,2.00
2023-03-04T02:22:28.554Z,2.40
2023-03-04T02:25:00.482Z,1.88
2023-03-04T02:27:32.026Z,2.60
2023-03-04T02:30:03.846Z,1.92
2023-03-04T02:32:35.387Z,1.63
2023-03-04T02:35:07.263Z,1.88
2023-03-04T02:37:38.773Z,1.77
2023-03-04T02:40:10.538Z,3.20
2023-03-04T02:42:42.042Z,2.20
2023-03-04T02:45:13.764Z,1.38
2023-03-04T02:47:45.259Z,1.70
2023-03-04T02:50:17.105Z,1.90
2023-03-04T02:52:48.625Z,1.37
2023-03-04T02:55:20.411Z,1.92
2023-03-04T02:57:51.919Z,2.08
2023-03-04T03:00:23.810Z,1.10
2023-03-04T03:02:57.043Z,1.73
2023-03-04T03:05:28.645Z,2.03
2023-03-04T03:08:00.251Z,2.58
2023-03-04T03:10:31.809Z,1.88
2023-03-04T03:13:03.304Z,1.73
2023-03-04T03:15:35.866Z,1.25
2023-03-04T03:18:07.379Z,2.97
2023-03-04T03:20:39.360Z,1.10
2023-03-04T03:23:10.899Z,1.17
2023-03-04T03:25:42.408Z,1.20
2023-03-04T03:28:13.912Z,2.08
2023-03-04T03:30:45.651Z,1.27
2023-03-04T03:33:17.178Z,1.05
2023-03-04T03:35:49.112Z,1.30
2023-03-04T03:38:20.657Z,1.60
2023-03-04T03:40:52.549Z,0.98
2023-03-04T03:43:24.131Z,1.53
2023-03-04T03:45:55.746Z,1.70
2023-03-04T03:48:27.336Z,1.70
2023-03-04T03:50:59.254Z,1.15
2023-03-04T03:53:30.751Z,1.40
2023-03-04T03:56:02.256Z,1.38
2023-03-04T03:58:33.759Z,0.88
2023-03-04T04:01:05.524Z,1.30
2023-03-04T04:03:37.045Z,1.27
2023-03-04T04:06:08.577Z,1.48
2023-03-04T04:08:40.086Z,1.05
2023-03-04T04:11:11.894Z,1.00
2023-03-04T04:13:43.443Z,1.08
2023-03-04T04:16:15.377Z,0.80
2023-03-04T04:18:46.912Z,1.57
2023-03-04T04:21:18.667Z,1.45
2023-03-04T04:23:50.335Z,1.55
2023-03-04T04:26:21.879Z,1.13
2023-03-04T04:28:53.388Z,1.25
2023-03-04T04:31:25.087Z,1.15
2023-03-04T04:33:56.676Z,1.50
2023-03-04T04:36:28.243Z,0.95
2023-03-04T04:38:59.755Z,1.05
2023-03-04T04:41:31.973Z,0.82
2023-03-04T04:44:03.470Z,1.27
2023-03-04T04:46:35.448Z,0.93
2023-03-04T04:49:07.078Z,0.50
2023-03-04T04:51:39.141Z,1.00
2023-03-04T04:54:10.827Z,1.08
2023-03-04T04:56:42.593Z,1.27
2023-03-04T04:59:14.169Z,0.85
2023-03-04T05:01:45.989Z,1.90
2023-03-04T05:04:17.528Z,0.43
2023-03-04T05:06:49.087Z,1.38
2023-03-04T05:09:22.913Z,0.95
2023-03-04T05:11:54.832Z,0.40
2023-03-04T05:14:26.441Z,1.03
2023-03-04T05:16:58.385Z,1.35
2023-03-04T05:19:29.925Z,0.63
2023-03-04T05:22:01.456Z,0.80
2023-03-04T05:24:33.294Z,1.05
2023-03-04T05:27:04.821Z,0.65
2023-03-04T05:29:36.320Z,0.65
2023-03-04T05:32:08.338Z,0.50
2023-03-04T05:34:39.962Z,1.25
2023-03-04T05:37:11.863Z,0.55
2023-03-04T05:39:43.370Z,1.10
2023-03-04T05:42:15.242Z,1.48
2023-03-04T05:44:46.754Z,1.07
2023-03-04T05:47:18.656Z,1.05
2023-03-04T05:49:50.145Z,1.10
2023-03-04T05:52:22.000Z,0.95
2023-03-04T05:54:53.875Z,1.10
2023-03-04T05:57:25.428Z,0.90
2023-03-04T05:59:56.945Z,0.57
2023-03-04T06:02:28.521Z,0.80
2023-03-04T06:05:00.393Z,0.73
2023-03-04T06:07:31.899Z,0.88
2023-03-04T06:10:03.434Z,0.90
2023-03-04T06:12:34.989Z,1.25
2023-03-04T06:15:07.161Z,0.90
2023-03-04T06:17:41.417Z,0.73
2023-03-04T06:20:13.774Z,1.00
2023-03-04T06:22:45.284Z,0.60
2023-03-04T06:25:17.157Z,0.40
2023-03-04T06:27:50.631Z,0.77
2023-03-04T06:30:22.669Z,0.68
2023-03-04T06:32:54.198Z,0.50
2023-03-04T06:35:26.201Z,0.55
2023-03-04T06:37:57.813Z,0.80
2023-03-04T06:40:29.378Z,0.50
2023-03-04T06:43:00.931Z,0.52
2023-03-04T06:45:32.457Z,0.50
2023-03-04T06:48:03.946Z,0.63
2023-03-04T06:50:35.838Z,0.80
2023-03-04T06:53:07.344Z,1.00
2023-03-04T06:55:39.219Z,0.63
2023-03-04T06:58:10.749Z,0.43
2023-03-04T07:00:42.863Z,0.70
2023-03-04T07:03:14.477Z,0.93
2023-03-04T07:05:46.381Z,0.50
2023-03-04T07:08:18.895Z,0.83
2023-03-04T07:10:51.592Z,1.02
2023-03-04T07:13:23.091Z,0.83
2023-03-04T07:15:54.957Z,0.95
2023-03-04T07:18:26.463Z,0.93
2023-03-04T07:20:58.306Z,0.73
2023-03-04T07:23:29.840Z,1.13
2023-03-04T07:26:01.883Z,0.65
2023-03-04T07:28:33.405Z,0.60
2023-03-04T07:31:05.272Z,0.93
2023-03-04T07:33:36.837Z,1.00
2023-03-04T07:36:08.450Z,1.30
2023-03-04T07:38:39.943Z,1.00
2023-03-04T07:41:11.795Z,0.50
2023-03-04T07:43:43.312Z,0.85
2023-03-04T07:46:14.885Z,1.13
2023-03-04T07:48:46.433Z,0.65
2023-03-04T07:51:18.202Z,0.77
2023-03-04T07:53:49.740Z,1.10
2023-03-04T07:56:21.260Z,0.32
2023-03-04T07:58:53.707Z,0.80
2023-03-04T08:01:25.655Z,0.60
2023-03-04T08:03:57.229Z,0.77
2023-03-04T08:06:28.766Z,0.50
2023-03-04T08:09:00.316Z,0.90
2023-03-04T08:11:32.026Z,0.73
2023-03-04T08:14:03.600Z,1.15
2023-03-04T08:16:35.394Z,0.70
2023-03-04T08:19:06.954Z,0.30
2023-03-04T08:21:38.805Z,0.70
2023-03-04T08:24:10.329Z,0.50
2023-03-04T08:26:42.374Z,0.70
2023-03-04T08:29:13.889Z,1.02
2023-03-04T08:31:48.664Z,0.70
2023-03-04T08:34:20.572Z,0.55
2023-03-04T08:36:52.378Z,1.02
2023-03-04T08:39:23.976Z,0.33
2023-03-04T08:41:55.991Z,0.32
2023-03-04T08:44:27.489Z,0.47
2023-03-04T08:46:59.119Z,1.27
2023-03-04T08:49:30.645Z,0.65
2023-03-04T08:52:02.187Z,0.60
2023-03-04T08:54:33.696Z,0.95
2023-03-04T08:57:08.087Z,0.90
2023-03-04T08:59:39.625Z,0.30
2023-03-04T09:02:11.454Z,0.75
2023-03-04T09:04:43.139Z,0.82
2023-03-04T09:07:14.834Z,0.70
2023-03-04T09:09:46.352Z,0.90
2023-03-04T09:12:17.863Z,1.00
2023-03-04T09:15:01.123Z,0.70
2023-03-04T09:17:40.512Z,0.75
2023-03-04T09:20:12.017Z,0.75
2023-03-04T09:22:43.816Z,1.10
2023-03-04T09:25:15.477Z,0.57
2023-03-04T09:27:47.029Z,1.10
2023-03-04T09:30:18.536Z,0.50
2023-03-04T09:32:50.146Z,0.85
2023-03-04T09:35:21.669Z,0.52
2023-03-04T09:37:53.998Z,0.68
2023-03-04T09:40:25.498Z,0.50
2023-03-04T09:42:58.340Z,0.68
2023-03-04T09:48:01.705Z,0.70
2023-03-04T09:50:33.488Z,1.50
2023-03-04T09:53:05.118Z,0.85
2023-03-04T09:55:36.668Z,0.60
2023-03-04T09:58:08.406Z,0.82
2023-03-04T10:00:40.172Z,1.00
2023-03-04T10:03:11.796Z,1.15
2023-03-04T10:05:43.656Z,0.52
2023-03-04T10:08:15.144Z,0.68
2023-03-04T10:10:47.318Z,0.35
2023-03-04T10:13:18.864Z,0.40
2023-03-04T10:15:54.075Z,0.40
2023-03-04T10:18:25.616Z,0.60
2023-03-04T10:20:57.323Z,0.65
2023-03-04T10:23:28.896Z,0.77
2023-03-04T10:26:00.846Z,0.38
2023-03-04T10:28:32.359Z,0.50
2023-03-04T10:31:04.194Z,0.38
2023-03-04T10:33:35.736Z,0.82
2023-03-04T10:36:07.565Z,1.00
2023-03-04T10:38:39.185Z,0.55
2023-03-04T10:41:11.120Z,0.88
2023-03-04T10:43:45.244Z,0.47
2023-03-04T10:46:16.791Z,0.50
2023-03-04T10:48:48.301Z,0.52
2023-03-04T10:51:20.221Z,0.70
2023-03-04T10:53:51.765Z,0.70
2023-03-04T10:56:23.316Z,0.50
2023-03-04T10:58:54.813Z,0.60
2023-03-04T11:01:26.691Z,0.82
2023-03-04T11:03:58.274Z,0.73
2023-03-04T11:06:31.395Z,0.50
2023-03-04T11:09:03.071Z,0.60
2023-03-04T11:11:35.087Z,0.93
2023-03-04T11:14:06.589Z,0.73
2023-03-04T11:16:38.602Z,0.77
2023-03-04T11:19:10.182Z,0.40
2023-03-04T11:21:41.801Z,0.65
2023-03-04T11:24:27.250Z,0.73
2023-03-04T11:27:00.119Z,0.63
2023-03-04T11:29:31.615Z,1.17
2023-03-04T11:32:03.473Z,0.85
2023-03-04T11:34:35.104Z,0.65
2023-03-04T11:37:06.828Z,1.00
2023-03-04T11:39:38.630Z,0.70
2023-03-04T11:42:10.635Z,0.57
2023-03-04T11:44:42.131Z,0.50
2023-03-04T11:47:13.861Z,0.65
2023-03-04T11:49:45.395Z,0.68
2023-03-04T11:54:58.288Z,0.60
2023-03-04T11:57:29.796Z,0.90
2023-03-04T12:00:01.257Z,0.52
2023-03-04T12:02:32.806Z,0.50
2023-03-04T12:05:04.353Z,0.40
2023-03-04T12:07:36.252Z,0.50
2023-03-04T12:10:07.797Z,1.08
2023-03-04T12:12:39.602Z,0.65
2023-03-04T12:15:11.102Z,0.98
2023-03-04T12:17:42.916Z,0.77
2023-03-04T12:20:14.392Z,1.20
2023-03-04T12:22:45.971Z,1.30
2023-03-04T12:25:18.844Z,1.20
2023-03-04T12:27:51.354Z,0.73
2023-03-04T12:30:22.851Z,1.55
2023-03-04T12:32:54.679Z,0.70
2023-03-04T12:35:26.257Z,1.02
2023-03-04T12:37:58.858Z,1.10
2023-03-04T12:40:30.339Z,0.77
2023-03-04T12:43:02.198Z,0.77
2023-03-04T12:45:33.726Z,0.35
2023-03-04T12:48:05.557Z,0.70
2023-03-04T12:50:38.057Z,0.47
2023-03-04T12:53:10.665Z,0.73
2023-03-04T12:55:42.137Z,0.95
2023-03-04T12:58:13.822Z,0.50
2023-03-04T13:00:45.371Z,0.63
2023-03-04T13:03:17.289Z,1.10
2023-03-04T13:05:48.833Z,0.73
2023-03-04T13:08:20.672Z,0.70
2023-03-04T13:10:52.384Z,0.65
2023-03-04T13:13:24.264Z,0.85
2023-03-04T13:15:55.800Z,0.80
2023-03-04T13:18:27.324Z,0.80
2023-03-04T13:20:59.115Z,0.75
2023-03-04T13:23:31.938Z,0.70
2023-03-04T13:26:03.424Z,0.60
2023-03-04T13:28:34.926Z,0.68
2023-03-04T13:31:06.739Z,0.77
2023-03-04T13:33:38.452Z,0.70
2023-03-04T13:36:11.563Z,0.63
2023-03-04T13:38:43.372Z,1.15
2023-03-04T13:41:14.894Z,0.70
2023-03-04T13:43:46.685Z,0.98
2023-03-04T13:46:18.438Z,0.50
2023-03-04T13:48:50.544Z,0.73
2023-03-04T13:51:29.424Z,0.67
2023-03-04T13:54:03.202Z,1.38
2023-03-04T13:56:37.160Z,0.55
2023-03-04T13:59:09.432Z,0.47
2023-03-04T14:01:40.929Z,0.60
2023-03-04T14:04:12.534Z,0.88
2023-03-04T14:06:44.082Z,0.55
2023-03-04T14:09:15.688Z,0.85
2023-03-04T14:11:47.186Z,0.70
2023-03-04T14:14:18.687Z,0.70
2023-03-04T14:16:50.350Z,1.35
2023-03-04T14:19:22.175Z,0.80
2023-03-04T14:21:53.952Z,0.73
2023-03-04T14:24:25.886Z,0.85
2023-03-04T14:26:57.714Z,0.90
2023-03-04T14:29:31.928Z,0.32
2023-03-04T14:32:04.080Z,1.15
2023-03-04T14:34:36.398Z,0.60
2023-03-04T14:37:08.220Z,0.63
2023-03-04T14:39:39.844Z,1.00
2023-03-04T14:42:11.477Z,1.02
2023-03-04T14:44:44.575Z,0.82
2023-03-04T14:47:17.363Z,0.90
2023-03-04T14:49:48.877Z,0.85
2023-03-04T14:52:20.748Z,0.50
2023-03-04T14:54:52.220Z,0.90
2023-03-04T14:57:24.507Z,0.60
2023-03-04T14:59:56.075Z,0.82
2023-03-04T15:02:31.311Z,0.75
2023-03-04T15:05:02.989Z,0.55
2023-03-04T15:07:34.658Z,1.55
2023-03-04T15:10:06.229Z,1.05
2023-03-04T15:12:38.468Z,0.50
2023-03-04T15:15:09.978Z,0.52
2023-03-04T15:17:42.803Z,0.57
2023-03-04T15:22:46.115Z,1.02
2023-03-04T15:25:20.345Z,0.57
2023-03-04T15:27:54.402Z,0.40
2023-03-04T15:30:27.363Z,0.73
2023-03-04T15:32:59.187Z,0.55
2023-03-04T15:35:30.726Z,0.80
2023-03-04T15:38:02.674Z,1.10
2023-03-04T15:40:34.374Z,0.97
2023-03-04T15:43:05.945Z,2.67
2023-03-04T15:45:38.219Z,0.70
2023-03-04T15:48:10.106Z,1.38
2023-03-04T15:50:41.600Z,0.97
2023-03-04T15:53:13.329Z,0.40
2023-03-04T15:55:44.803Z,0.68
2023-03-04T15:58:16.514Z,1.27
2023-03-04T16:00:48.064Z,0.98
2023-03-04T16:03:20.040Z,1.00
2023-03-04T16:05:51.524Z,0.43
2023-03-04T16:08:25.223Z,1.25
2023-03-04T16:10:56.735Z,0.70
2023-03-04T16:13:28.297Z,0.82
2023-03-04T16:15:59.857Z,0.82
2023-03-04T16:18:31.442Z,0.77
2023-03-04T16:21:04.917Z,0.90
2023-03-04T16:23:37.996Z,0.30
2023-03-04T16:26:09.495Z,0.80
2023-03-04T16:28:41.205Z,0.73
2023-03-04T16:31:12.812Z,0.68
2023-03-04T16:33:45.228Z,0.47
2023-03-04T16:36:16.796Z,0.88
2023-03-04T16:38:48.954Z,0.55
2023-03-04T16:41:20.549Z,0.80
2023-03-04T16:43:52.463Z,0.75
2023-03-04T16:46:24.089Z,0.88
2023-03-04T16:48:55.708Z,0.70
2023-03-04T16:51:27.257Z,1.08
2023-03-04T16:54:00.569Z,0.68
2023-03-04T16:56:32.076Z,0.60
2023-03-04T16:59:03.941Z,0.57
2023-03-04T17:01:36.825Z,0.35
2023-03-04T17:04:08.331Z,0.60
2023-03-04T17:06:40.136Z,0.73
2023-03-04T17:09:12.041Z,1.08
2023-03-04T17:11:43.780Z,1.00
2023-03-04T17:14:15.501Z,0.77
2023-03-04T17:16:47.007Z,0.60
2023-03-04T17:19:19.031Z,0.77
2023-03-04T17:21:50.565Z,0.77
2023-03-04T17:24:22.424Z,0.93
2023-03-04T17:26:53.938Z,0.77
2023-03-04T17:29:26.156Z,1.00
2023-03-04T17:31:57.716Z,0.43
2023-03-04T17:34:29.278Z,0.40
2023-03-04T17:37:01.389Z,0.63
2023-03-04T17:39:32.975Z,1.13
2023-03-04T17:42:04.527Z,0.88
2023-03-04T17:44:36.384Z,0.65
2023-03-04T17:47:07.886Z,1.13
2023-03-04T17:49:39.460Z,0.57
2023-03-04T17:52:11.016Z,0.70
2023-03-04T17:54:42.966Z,1.02
2023-03-04T17:57:14.477Z,1.20
2023-03-04T17:59:46.148Z,0.50
2023-03-04T18:02:17.836Z,0.75
2023-03-04T18:04:50.771Z,1.42
2023-03-04T18:07:22.374Z,0.60
2023-03-04T18:09:54.051Z,0.88
2023-03-04T18:12:25.528Z,1.48
2023-03-04T18:14:57.392Z,0.40
2023-03-04T18:17:28.992Z,1.58
2023-03-04T18:20:02.297Z,0.93
2023-03-04T18:22:33.808Z,0.70
2023-03-04T18:25:05.767Z,0.38
2023-03-04T18:27:39.774Z,1.10
2023-03-04T18:30:11.301Z,0.73
2023-03-04T18:32:51.928Z,0.50
2023-03-04T18:35:24.302Z,1.13
2023-03-04T18:37:55.815Z,0.77
2023-03-04T18:40:27.364Z,1.17
2023-03-04T18:43:00.099Z,1.70
2023-03-04T18:48:03.337Z,0.82
2023-03-04T18:50:35.104Z,0.88
2023-03-04T18:53:06.975Z,0.93
2023-03-04T18:55:38.520Z,1.07
2023-03-04T18:58:10.055Z,0.80
2023-03-04T19:00:41.562Z,0.90
2023-03-04T19:03:13.388Z,0.90
2023-03-04T19:05:45.016Z,0.70
2023-03-04T19:08:16.706Z,0.88
2023-03-04T19:10:48.220Z,0.85
2023-03-04T19:13:22.553Z,0.93
2023-03-04T19:15:54.071Z,1.15
2023-03-04T19:18:26.061Z,1.17
2023-03-04T19:20:57.726Z,0.90
2023-03-04T19:23:29.706Z,0.70
2023-03-04T19:26:01.184Z,1.60
2023-03-04T19:28:32.706Z,1.10
2023-03-04T19:31:04.217Z,1.05
2023-03-04T19:33:35.984Z,0.63
2023-03-04T19:36:07.491Z,0.70
2023-03-04T19:38:39.504Z,0.55
2023-03-04T19:41:11.044Z,0.93
2023-03-04T19:43:42.950Z,1.13
2023-03-04T19:46:14.603Z,0.70
2023-03-04T19:48:46.323Z,0.65
2023-03-04T19:51:17.882Z,1.73
2023-03-04T19:53:51.100Z,0.45
2023-03-04T19:56:22.610Z,0.45
2023-03-04T19:58:54.510Z,0.95
2023-03-04T20:01:28.161Z,0.63
2023-03-04T20:04:00.327Z,0.63
2023-03-04T20:06:31.899Z,0.53
2023-03-04T20:09:03.750Z,0.50
2023-03-04T20:11:41.509Z,0.95
2023-03-04T20:14:22.463Z,2.03
2023-03-04T20:16:54.022Z,0.73
2023-03-04T20:19:25.987Z,0.65
2023-03-04T20:21:57.831Z,1.30
2023-03-04T20:24:29.521Z,0.73
2023-03-04T20:27:01.088Z,0.73
2023-03-04T20:29:32.629Z,1.02
2023-03-04T20:32:04.257Z,1.02
2023-03-04T20:34:36.822Z,0.65
2023-03-04T20:37:08.384Z,1.35
2023-03-04T20:39:40.222Z,1.02
2023-03-04T20:42:12.260Z,0.60
2023-03-04T20:44:44.178Z,1.77
2023-03-04T20:47:15.754Z,1.17
2023-03-04T20:49:47.800Z,0.88
2023-03-04T20:52:19.388Z,1.48
2023-03-04T20:54:51.236Z,0.40
2023-03-04T20:57:22.829Z,0.60
2023-03-04T20:59:54.370Z,0.98
2023-03-04T21:02:25.893Z,1.30
2023-03-04T21:04:57.769Z,1.30
2023-03-04T21:07:29.287Z,1.30
2023-03-04T21:10:01.218Z,0.70
2023-03-04T21:12:32.715Z,0.80
2023-03-04T21:15:04.254Z,1.00
2023-03-04T21:17:35.783Z,0.40
2023-03-04T21:20:07.693Z,1.33
2023-03-04T21:22:39.226Z,0.70
2023-03-04T21:25:11.192Z,0.75
2023-03-04T21:27:43.259Z,0.40
2023-03-04T21:30:15.181Z,0.50
2023-03-04T21:32:46.705Z,0.50
2023-03-04T21:35:19.634Z,1.42
2023-03-04T21:37:51.450Z,1.00
2023-03-04T21:40:23.159Z,1.15
2023-03-04T21:42:54.682Z,0.65
2023-03-04T21:45:26.224Z,0.35
2023-03-04T21:47:57.754Z,1.35
2023-03-04T21:50:29.269Z,0.57
2023-03-04T21:53:00.770Z,0.60
2023-03-04T21:55:32.276Z,1.20
2023-03-04T21:58:03.775Z,0.77
2023-03-04T22:00:35.583Z,0.75
2023-03-04T22:03:07.137Z,2.03
2023-03-04T22:05:38.675Z,1.08
2023-03-04T22:08:10.188Z,1.02
2023-03-04T22:10:41.727Z,0.82
2023-03-04T22:13:13.242Z,1.10
2023-03-04T22:15:45.130Z,0.98
2023-03-04T22:18:16.670Z,0.93
2023-03-04T22:20:48.540Z,1.00
2023-03-04T22:23:21.056Z,0.63
2023-03-04T22:25:52.569Z,0.40
2023-03-04T22:28:28.212Z,0.93
2023-03-04T22:30:59.976Z,1.00
2023-03-04T22:33:37.142Z,0.63
2023-03-04T22:36:08.721Z,1.30
2023-03-04T22:38:40.259Z,1.25
2023-03-04T22:41:11.772Z,1.23
2023-03-04T22:43:43.271Z,0.90
2023-03-04T22:46:15.238Z,0.95
2023-03-04T22:48:46.790Z,0.43
2023-03-04T22:51:18.376Z,0.57
2023-03-04T22:53:50.017Z,0.80
2023-03-04T22:56:21.891Z,0.73
2023-03-04T22:58:53.430Z,0.83
2023-03-04T23:01:25.070Z,1.10
2023-03-04T23:03:56.611Z,1.17
2023-03-04T23:06:30.157Z,1.85
2023-03-04T23:09:01.711Z,0.95
2023-03-04T23:11:35.131Z,1.20
2023-03-04T23:14:07.877Z,1.13
2023-03-04T23:19:14.397Z,1.25
2023-03-04T23:21:46.408Z,0.98
2023-03-04T23:24:19.656Z,0.57
2023-03-04T23:26:52.380Z,0.93
2023-03-04T23:31:55.727Z,0.75
2023-03-04T23:34:27.307Z,0.40
2023-03-04T23:36:58.822Z,0.65
2023-03-04T23:39:30.327Z,0.98
2023-03-04T23:42:01.834Z,0.95
2023-03-04T23:44:33.432Z,0.57
2023-03-04T23:47:04.953Z,0.85
2023-03-04T23:49:36.502Z,0.77
2023-03-04T23:52:08.013Z,0.50
2023-03-04T23:54:40.828Z,0.60
2023-03-04T23:57:12.378Z,0.97
2023-03-04T23:59:44.478Z,0.90
